Time;durP1;ratioP1;P1;durP2;ratioP2;P2;SDS_P1;SDS_P2;PMS_P1;PMS_P2;Temp;Humidity;BMP_temperature;BMP_pressure;BME280_temperature;BME280_humidity;BME280_pressure;Samples;Min_cycle;Max_cycle;Signal;HPM_P1;HPM_P2
2020/12/12 00:02:30;;;;;;;55.70;23.87;;;2.70;99.90;;;;;;6941848;28;20411;-73
2020/12/12 00:05:50;;;;;;;55.42;24.48;;;2.70;99.90;;;;;;6954092;28;20740;-73
2020/12/12 00:09:11;;;;;;;51.37;24.00;;;2.60;99.90;;;;;;6949588;28;20406;-73
2020/12/12 00:12:32;;;;;;;53.35;25.63;;;2.70;99.90;;;;;;6948304;28;20428;-73
2020/12/12 00:15:53;;;;;;;55.35;24.55;;;2.80;99.90;;;;;;6944083;28;20418;-73
2020/12/12 00:19:13;;;;;;;49.50;23.70;;;2.80;99.90;;;;;;6940239;28;20403;-72
2020/12/12 00:22:34;;;;;;;52.58;25.00;;;2.80;99.90;;;;;;6953675;28;20726;-73
2020/12/12 00:25:55;;;;;;;50.88;23.83;;;2.80;99.90;;;;;;6946266;28;20469;-71
2020/12/12 00:29:17;;;;;;;46.42;23.35;;;2.80;99.90;;;;;;6953950;28;20922;-73
2020/12/12 00:32:37;;;;;;;49.08;24.25;;;2.80;99.90;;;;;;6947426;28;20446;-70
2020/12/12 00:35:59;;;;;;;50.53;24.30;;;2.90;99.90;;;;;;6951465;28;20903;-72
2020/12/12 00:39:20;;;;;;;50.10;24.35;;;2.90;99.90;;;;;;6954745;28;20903;-72
2020/12/12 00:42:41;;;;;;;49.97;24.63;;;2.80;99.90;;;;;;6951644;28;20402;-72
2020/12/12 00:46:02;;;;;;;50.38;23.90;;;2.90;99.90;;;;;;6945849;28;20516;-73
2020/12/12 00:49:23;;;;;;;46.92;23.40;;;2.80;99.90;;;;;;6952410;28;20503;-72
2020/12/12 00:52:44;;;;;;;47.55;24.30;;;2.90;99.90;;;;;;6947527;28;20390;-73
2020/12/12 00:56:04;;;;;;;49.37;24.67;;;2.80;99.90;;;;;;6955673;28;20413;-73
2020/12/12 00:59:25;;;;;;;50.60;24.60;;;2.80;99.90;;;;;;6951622;28;20406;-72
2020/12/12 01:02:46;;;;;;;46.25;23.67;;;2.70;99.90;;;;;;6957981;28;20404;-72
2020/12/12 01:06:11;;;;;;;51.00;24.07;;;2.70;99.90;;;;;;6959185;28;20389;-73
2020/12/12 01:09:32;;;;;;;45.77;23.33;;;2.70;99.90;;;;;;6951001;28;20505;-73
2020/12/12 01:12:53;;;;;;;49.03;23.63;;;2.80;99.90;;;;;;6942555;28;20421;-72
2020/12/12 01:16:15;;;;;;;49.50;24.60;;;2.80;99.90;;;;;;6950889;28;21059;-72
2020/12/12 01:19:35;;;;;;;47.28;24.35;;;2.80;99.90;;;;;;6953327;28;20395;-72
2020/12/12 01:22:56;;;;;;;46.73;24.27;;;2.80;99.90;;;;;;6955267;28;20394;-73
2020/12/12 01:26:17;;;;;;;46.10;24.30;;;2.70;99.90;;;;;;6957925;28;20897;-72
2020/12/12 01:29:37;;;;;;;49.95;23.95;;;2.70;99.90;;;;;;6957889;28;20411;-71
2020/12/12 01:32:58;;;;;;;47.53;23.57;;;2.70;99.90;;;;;;6952129;28;20428;-73
2020/12/12 01:36:19;;;;;;;43.15;22.70;;;2.80;99.90;;;;;;6954057;28;20417;-73
2020/12/12 01:39:40;;;;;;;44.90;23.30;;;2.80;99.90;;;;;;6957976;28;20406;-72
2020/12/12 01:43:00;;;;;;;47.07;23.10;;;2.90;99.90;;;;;;6956062;28;20482;-72
2020/12/12 01:46:23;;;;;;;48.50;23.33;;;2.80;99.90;;;;;;6957804;28;20393;-73
2020/12/12 01:49:44;;;;;;;43.08;22.58;;;2.80;99.90;;;;;;6955284;28;20412;-71
2020/12/12 01:53:05;;;;;;;45.37;24.10;;;2.80;99.90;;;;;;6955964;28;20420;-73
2020/12/12 01:56:26;;;;;;;46.00;24.17;;;2.80;99.90;;;;;;6947915;28;20781;-73
2020/12/12 01:59:48;;;;;;;43.45;23.15;;;2.90;99.90;;;;;;6953943;28;20415;-72
2020/12/12 02:03:13;;;;;;;45.97;23.40;;;2.80;99.90;;;;;;6954132;28;20401;-72
2020/12/12 02:06:36;;;;;;;50.17;24.25;;;2.80;99.90;;;;;;6954153;28;20400;-72
2020/12/12 02:09:58;;;;;;;46.17;22.80;;;2.80;99.90;;;;;;6954626;28;20476;-72
2020/12/12 02:13:19;;;;;;;45.65;24.05;;;2.80;99.90;;;;;;6950785;28;20490;-73
2020/12/12 02:16:57;;;;;;;42.67;22.75;;;2.80;99.90;;;;;;6945375;28;20453;-73
2020/12/12 02:20:17;;;;;;;46.63;23.38;;;2.70;99.90;;;;;;6945144;28;20391;-73
2020/12/12 02:23:38;;;;;;;45.53;23.70;;;2.70;99.90;;;;;;6940203;28;20415;-73
2020/12/12 02:27:06;;;;;;;44.42;23.80;;;2.80;99.90;;;;;;6955438;28;20863;-73
2020/12/12 02:30:27;;;;;;;49.25;25.27;;;2.80;99.90;;;;;;6951353;28;20948;-73
2020/12/12 02:33:48;;;;;;;47.28;24.17;;;2.80;99.90;;;;;;6950092;28;20412;-73
2020/12/12 02:37:08;;;;;;;47.90;24.43;;;2.80;99.90;;;;;;6951097;28;20387;-72
2020/12/12 02:40:29;;;;;;;46.08;23.30;;;2.70;99.90;;;;;;6948752;28;20406;-72
2020/12/12 02:43:50;;;;;;;45.20;22.80;;;2.70;99.90;;;;;;6951951;28;20450;-72
2020/12/12 02:47:10;;;;;;;51.30;24.20;;;2.70;99.90;;;;;;6951495;28;20873;-72
2020/12/12 02:50:32;;;;;;;48.05;24.48;;;2.80;99.90;;;;;;6948263;28;20411;-73
2020/12/12 02:53:53;;;;;;;50.75;24.75;;;2.70;99.90;;;;;;6956605;28;20420;-73
2020/12/12 02:57:14;;;;;;;45.80;23.50;;;2.60;99.90;;;;;;6950905;28;20486;-73
2020/12/12 03:00:35;;;;;;;48.83;24.00;;;2.70;99.90;;;;;;6957388;28;20769;-72
2020/12/12 03:03:55;;;;;;;48.15;23.60;;;2.60;99.90;;;;;;6951219;28;21041;-72
2020/12/12 03:07:16;;;;;;;51.40;24.40;;;2.50;99.90;;;;;;6942323;28;20811;-73
2020/12/12 03:10:37;;;;;;;48.88;23.88;;;2.50;99.90;;;;;;6955239;28;20401;-72
2020/12/12 03:13:58;;;;;;;49.75;24.20;;;2.60;99.90;;;;;;6952497;28;20406;-72
2020/12/12 03:17:18;;;;;;;49.20;23.80;;;2.60;99.90;;;;;;6950589;28;20399;-73
2020/12/12 03:20:39;;;;;;;49.00;24.35;;;2.60;99.90;;;;;;6946755;28;20923;-72
2020/12/12 03:24:00;;;;;;;50.23;24.23;;;2.60;99.90;;;;;;6953186;28;20397;-73
2020/12/12 03:27:20;;;;;;;58.17;26.50;;;2.50;99.90;;;;;;6956952;28;20394;-72
2020/12/12 03:30:41;;;;;;;49.63;25.05;;;2.40;99.90;;;;;;6948085;28;20404;-72
2020/12/12 03:34:02;;;;;;;45.97;23.83;;;2.50;99.90;;;;;;6944553;28;20418;-73
2020/12/12 03:37:22;;;;;;;49.67;23.70;;;2.50;99.90;;;;;;6954734;28;20397;-73
2020/12/12 03:40:43;;;;;;;50.42;24.42;;;2.50;99.90;;;;;;6950088;28;20397;-72
2020/12/12 03:44:04;;;;;;;55.63;25.23;;;2.50;99.90;;;;;;6954937;28;20535;-71
2020/12/12 03:47:25;;;;;;;54.65;24.83;;;2.50;99.90;;;;;;6942798;28;20410;-73
2020/12/12 03:50:45;;;;;;;55.40;25.98;;;2.50;99.90;;;;;;6952317;28;20395;-72
2020/12/12 03:54:06;;;;;;;54.37;25.80;;;2.50;99.90;;;;;;6951182;28;20408;-72
2020/12/12 03:57:27;;;;;;;52.67;25.50;;;2.50;99.90;;;;;;6944496;28;20593;-72
2020/12/12 04:00:48;;;;;;;53.97;25.95;;;2.50;99.90;;;;;;6951875;28;20617;-73
2020/12/12 04:04:08;;;;;;;50.30;24.53;;;2.40;99.90;;;;;;6947899;28;20434;-69
2020/12/12 04:07:29;;;;;;;53.25;25.30;;;2.40;99.90;;;;;;6948119;28;20398;-72
2020/12/12 04:10:50;;;;;;;54.60;24.67;;;2.50;99.90;;;;;;6955455;28;20409;-73
2020/12/12 04:14:11;;;;;;;53.23;24.80;;;2.50;99.90;;;;;;6950056;28;20484;-73
2020/12/12 04:17:31;;;;;;;53.75;25.40;;;2.50;99.90;;;;;;6938288;28;20481;-72
2020/12/12 04:20:52;;;;;;;50.73;24.70;;;2.30;99.90;;;;;;6947845;28;20406;-72
2020/12/12 04:24:13;;;;;;;48.93;24.13;;;2.40;99.90;;;;;;6950042;28;20479;-72
2020/12/12 04:27:33;;;;;;;51.30;24.95;;;2.50;99.90;;;;;;6954417;28;20399;-72
2020/12/12 04:30:54;;;;;;;52.13;24.40;;;2.50;99.90;;;;;;6954930;28;20427;-72
2020/12/12 04:34:15;;;;;;;49.67;24.70;;;2.50;99.90;;;;;;6952600;28;20896;-73
2020/12/12 04:37:35;;;;;;;51.60;25.00;;;2.60;99.90;;;;;;6959834;28;21005;-73
2020/12/12 04:40:58;;;;;;;53.50;25.80;;;2.60;99.90;;;;;;6955524;28;20500;-72
2020/12/12 04:44:18;;;;;;;57.20;25.43;;;2.60;99.90;;;;;;6942839;28;20414;-73
2020/12/12 04:47:43;;;;;;;53.27;24.30;;;2.80;99.90;;;;;;6944047;28;20405;-72
2020/12/12 04:51:05;;;;;;;52.42;24.27;;;2.70;99.90;;;;;;6942992;28;20501;-72
2020/12/12 04:54:29;;;;;;;53.53;24.85;;;2.50;99.90;;;;;;6937638;28;20928;-72
2020/12/12 04:57:52;;;;;;;53.50;24.55;;;2.50;99.90;;;;;;6933320;28;20419;-73
2020/12/12 05:01:13;;;;;;;59.95;26.45;;;2.50;99.90;;;;;;6937669;28;20391;-72
2020/12/12 05:04:34;;;;;;;54.10;25.93;;;2.50;99.90;;;;;;6938306;28;20423;-73
2020/12/12 05:07:54;;;;;;;55.72;25.65;;;2.50;99.90;;;;;;6940021;28;20387;-73
2020/12/12 05:11:15;;;;;;;55.73;24.63;;;2.50;99.90;;;;;;6942425;28;20900;-72
2020/12/12 05:14:36;;;;;;;50.33;25.60;;;2.50;99.90;;;;;;6939491;28;20442;-72
2020/12/12 05:17:56;;;;;;;57.28;25.80;;;2.50;99.90;;;;;;6944788;28;20501;-73
2020/12/12 05:21:17;;;;;;;53.30;25.17;;;2.50;99.90;;;;;;6944445;28;20391;-72
2020/12/12 05:24:39;;;;;;;53.38;24.73;;;2.60;99.90;;;;;;6941366;28;20405;-73
2020/12/12 05:28:00;;;;;;;56.95;25.67;;;2.50;99.90;;;;;;6930765;28;20462;-72
2020/12/12 05:31:21;;;;;;;52.03;25.05;;;2.50;99.90;;;;;;6943662;28;20442;-73
2020/12/12 05:34:42;;;;;;;52.90;25.52;;;2.60;99.90;;;;;;6940389;28;20767;-72
2020/12/12 05:38:05;;;;;;;50.90;24.47;;;2.60;99.90;;;;;;6941879;28;20884;-72
2020/12/12 05:41:28;;;;;;;48.23;25.50;;;2.60;99.90;;;;;;6945215;28;20443;-72
2020/12/12 05:44:49;;;;;;;55.30;25.60;;;2.60;99.90;;;;;;6937175;28;20393;-73
2020/12/12 05:48:12;;;;;;;52.67;25.43;;;2.70;99.90;;;;;;6947019;28;20406;-73
2020/12/12 05:51:33;;;;;;;56.22;24.50;;;2.60;99.90;;;;;;6949534;28;20406;-73
2020/12/12 05:54:54;;;;;;;53.90;25.98;;;2.70;99.90;;;;;;6944804;28;20415;-73
2020/12/12 05:58:15;;;;;;;57.92;25.52;;;2.60;99.90;;;;;;6944097;28;20428;-72
2020/12/12 06:01:39;;;;;;;55.45;25.20;;;2.60;99.90;;;;;;6934962;28;20480;-73
2020/12/12 06:05:03;;;;;;;55.50;25.33;;;2.70;99.90;;;;;;6937559;28;20415;-73
2020/12/12 06:08:44;;;;;;;56.72;26.27;;;2.60;99.90;;;;;;6940226;28;20405;-73
2020/12/12 06:12:07;;;;;;;57.53;26.38;;;2.60;99.90;;;;;;6945397;28;20426;-73
2020/12/12 06:15:32;;;;;;;58.92;26.45;;;2.50;99.90;;;;;;6953840;28;20418;-73
2020/12/12 06:19:17;;;;;;;58.05;26.02;;;2.50;99.90;;;;;;6947141;28;20395;-73
2020/12/12 06:22:39;;;;;;;50.80;25.40;;;2.50;99.90;;;;;;6947298;28;20470;-71
2020/12/12 06:26:00;;;;;;;55.17;25.70;;;2.60;99.90;;;;;;6946760;28;20393;-73
2020/12/12 06:29:23;;;;;;;51.30;23.90;;;2.50;99.90;;;;;;6958325;28;20765;-73
2020/12/12 06:32:44;;;;;;;52.23;25.60;;;2.60;99.90;;;;;;6946461;28;20401;-73
2020/12/12 06:36:28;;;;;;;53.40;26.00;;;2.60;99.90;;;;;;6951481;28;20470;-72
2020/12/12 06:39:48;;;;;;;53.33;26.20;;;2.70;99.90;;;;;;6937820;28;20401;-72
2020/12/12 06:43:32;;;;;;;51.33;25.73;;;2.70;99.90;;;;;;6948583;28;20398;-72
2020/12/12 06:46:54;;;;;;;51.20;25.20;;;2.70;99.90;;;;;;6945052;28;20456;-72
2020/12/12 06:50:21;;;;;;;52.33;26.20;;;2.70;99.90;;;;;;6953720;28;20464;-72
2020/12/12 06:53:42;;;;;;;55.70;26.90;;;2.80;99.90;;;;;;6946184;28;20451;-72
2020/12/12 06:57:04;;;;;;;56.10;25.50;;;2.90;99.90;;;;;;6956590;28;20484;-72
2020/12/12 07:00:30;;;;;;;53.53;24.67;;;2.90;99.90;;;;;;6946633;28;20399;-71
2020/12/12 07:04:00;;;;;;;55.07;25.80;;;2.90;99.90;;;;;;6949695;28;20720;-71
2020/12/12 07:07:20;;;;;;;57.42;26.75;;;3.00;99.90;;;;;;6949887;28;20391;-71
2020/12/12 07:10:45;;;;;;;52.95;25.85;;;2.90;99.90;;;;;;6957530;28;20915;-72
2020/12/12 07:14:05;;;;;;;53.40;25.83;;;2.90;99.90;;;;;;6938725;28;20484;-72
2020/12/12 07:17:27;;;;;;;51.28;25.73;;;2.90;99.90;;;;;;6946024;28;20889;-72
2020/12/12 07:20:49;;;;;;;55.53;25.50;;;2.80;99.90;;;;;;6948800;28;21502;-72
2020/12/12 07:24:10;;;;;;;49.63;26.00;;;2.90;99.90;;;;;;6946628;28;20401;-73
2020/12/12 07:27:31;;;;;;;53.10;25.90;;;2.90;99.90;;;;;;6947398;28;20398;-72
2020/12/12 07:30:52;;;;;;;57.67;26.13;;;3.10;99.90;;;;;;6941803;28;20939;-72
2020/12/12 07:34:21;;;;;;;52.15;24.75;;;3.10;99.90;;;;;;6932585;28;20844;-72
2020/12/12 07:37:41;;;;;;;59.53;28.00;;;3.10;99.90;;;;;;6941261;28;20385;-72
2020/12/12 07:41:10;;;;;;;53.10;26.70;;;3.10;99.90;;;;;;6941050;28;20403;-71
2020/12/12 07:44:32;;;;;;;54.17;26.77;;;3.10;99.90;;;;;;6947112;28;20406;-70
2020/12/12 07:48:03;;;;;;;52.67;26.30;;;3.10;99.90;;;;;;6941780;28;20917;-73
2020/12/12 07:51:24;;;;;;;55.30;26.70;;;3.10;99.90;;;;;;6945331;28;20409;-71
2020/12/12 07:54:57;;;;;;;50.65;25.92;;;3.20;99.90;;;;;;6944002;28;20418;-73
2020/12/12 07:58:20;;;;;;;48.43;24.97;;;3.10;99.90;;;;;;6933863;28;21065;-71
2020/12/12 08:01:42;;;;;;;54.17;26.50;;;3.00;99.90;;;;;;6946262;28;20403;-73
2020/12/12 08:05:05;;;;;;;51.90;25.55;;;3.10;99.90;;;;;;6941148;28;20397;-72
2020/12/12 08:08:25;;;;;;;55.42;27.42;;;3.10;99.90;;;;;;6939727;28;20808;-73
2020/12/12 08:11:58;;;;;;;58.93;26.90;;;3.10;99.90;;;;;;6945417;28;20472;-74
2020/12/12 08:15:31;;;;;;;59.35;26.45;;;3.10;99.90;;;;;;6941451;28;20406;-74
2020/12/12 08:19:05;;;;;;;56.85;26.63;;;3.00;99.90;;;;;;6942954;28;20945;-73
2020/12/12 08:22:27;;;;;;;54.28;26.20;;;3.10;99.90;;;;;;6933936;28;20445;-73
2020/12/12 08:25:48;;;;;;;53.75;25.85;;;3.00;99.90;;;;;;6944031;28;20467;-74
2020/12/12 08:29:09;;;;;;;53.10;26.15;;;3.00;99.90;;;;;;6942493;28;20897;-74
2020/12/12 08:32:32;;;;;;;57.57;26.87;;;3.00;99.90;;;;;;6948458;28;20407;-73
2020/12/12 08:35:53;;;;;;;52.88;26.35;;;3.10;99.90;;;;;;6943440;28;20497;-74
2020/12/12 08:39:14;;;;;;;50.28;26.20;;;3.10;99.90;;;;;;6943425;28;20394;-74
2020/12/12 08:42:35;;;;;;;49.80;24.97;;;3.20;99.90;;;;;;6939209;28;20434;-74
2020/12/12 08:45:59;;;;;;;57.22;26.40;;;3.10;99.90;;;;;;6938549;28;20501;-74
2020/12/12 08:49:20;;;;;;;53.65;26.88;;;3.20;99.90;;;;;;6946476;28;20391;-72
2020/12/12 08:52:43;;;;;;;51.00;26.05;;;3.20;99.90;;;;;;6945553;28;20753;-73
2020/12/12 08:56:15;;;;;;;53.63;26.92;;;3.20;99.90;;;;;;6943606;28;20416;-73
2020/12/12 08:59:36;;;;;;;52.90;25.80;;;3.30;99.90;;;;;;6942842;28;20394;-75
2020/12/12 09:03:00;;;;;;;51.50;25.58;;;3.30;99.90;;;;;;6948228;28;20476;-75
2020/12/12 09:06:21;;;;;;;54.97;26.33;;;3.20;99.90;;;;;;6951379;28;20404;-75
2020/12/12 09:09:43;;;;;;;54.90;26.65;;;3.30;99.90;;;;;;6944916;28;20411;-75
2020/12/12 09:13:08;;;;;;;54.63;26.50;;;3.20;99.90;;;;;;6949312;28;20393;-75
2020/12/12 09:16:29;;;;;;;57.92;27.27;;;3.10;99.90;;;;;;6951076;28;20445;-75
2020/12/12 09:19:50;;;;;;;55.50;26.65;;;3.20;99.90;;;;;;6948684;28;20813;-73
2020/12/12 09:23:10;;;;;;;53.40;26.70;;;3.30;99.90;;;;;;6947646;28;20391;-75
2020/12/12 09:26:31;;;;;;;52.50;26.63;;;3.40;99.90;;;;;;6941777;28;20932;-75
2020/12/12 09:29:52;;;;;;;51.03;26.38;;;3.30;99.90;;;;;;6953201;28;21047;-76
2020/12/12 09:33:13;;;;;;;52.30;26.27;;;3.30;99.90;;;;;;6947304;28;20407;-75
2020/12/12 09:36:34;;;;;;;55.60;25.83;;;3.50;99.90;;;;;;6953000;28;20421;-76
2020/12/12 09:39:55;;;;;;;53.90;26.98;;;3.40;99.90;;;;;;6955803;28;20397;-76
2020/12/12 09:43:17;;;;;;;56.63;27.60;;;3.50;99.90;;;;;;6956697;28;20755;-76
2020/12/12 09:46:38;;;;;;;47.95;26.23;;;3.50;99.90;;;;;;6947082;28;20415;-75
2020/12/12 09:49:58;;;;;;;54.78;27.40;;;3.40;99.90;;;;;;6958675;28;20389;-75
2020/12/12 09:53:19;;;;;;;48.47;26.13;;;3.50;99.90;;;;;;6943700;28;20395;-75
2020/12/12 09:56:40;;;;;;;48.72;26.20;;;3.40;99.90;;;;;;6938602;28;20441;-75
2020/12/12 10:00:01;;;;;;;50.30;25.58;;;3.40;99.90;;;;;;6951187;28;20406;-74
2020/12/12 10:03:21;;;;;;;47.55;25.17;;;3.50;99.90;;;;;;6949178;28;20469;-77
2020/12/12 10:06:43;;;;;;;48.90;25.60;;;3.50;99.90;;;;;;6947485;28;20949;-76
2020/12/12 10:10:04;;;;;;;49.50;24.93;;;3.60;99.90;;;;;;6947071;28;20762;-75
2020/12/12 10:13:26;;;;;;;49.42;25.42;;;3.60;99.90;;;;;;6953412;28;20418;-75
2020/12/12 10:16:47;;;;;;;51.80;25.00;;;3.60;99.90;;;;;;6954060;28;20800;-75
2020/12/12 10:20:07;;;;;;;47.58;25.08;;;3.50;99.90;;;;;;6948700;28;20935;-75
2020/12/12 10:23:29;;;;;;;52.40;25.05;;;3.50;99.90;;;;;;6956371;28;20412;-74
2020/12/12 10:26:50;;;;;;;45.45;23.75;;;3.50;99.90;;;;;;6942151;28;20460;-75
2020/12/12 10:30:13;;;;;;;44.27;24.60;;;3.60;99.90;;;;;;6955299;28;20402;-75
2020/12/12 10:33:34;;;;;;;49.42;24.60;;;3.70;99.90;;;;;;6954203;28;20391;-75
2020/12/12 10:36:54;;;;;;;46.17;24.98;;;3.70;99.90;;;;;;6951613;28;20409;-75
2020/12/12 10:43:45;;;;;;;47.00;23.85;;;3.80;99.90;;;;;;6951601;28;20474;-75
2020/12/12 10:47:05;;;;;;;44.50;24.27;;;3.70;99.90;;;;;;6945085;28;20401;-75
2020/12/12 10:50:26;;;;;;;47.92;24.15;;;3.70;99.90;;;;;;6952343;28;20401;-75
2020/12/12 10:53:49;;;;;;;47.40;24.17;;;3.80;99.90;;;;;;6949105;28;20405;-74
2020/12/12 10:57:10;;;;;;;49.13;25.03;;;3.80;99.90;;;;;;6954752;28;20393;-75
2020/12/12 11:00:39;;;;;;;48.42;24.70;;;3.90;99.90;;;;;;6948349;28;20391;-75
2020/12/12 11:04:00;;;;;;;45.63;24.10;;;3.80;99.90;;;;;;6938181;28;20427;-75
2020/12/12 11:07:20;;;;;;;43.45;24.27;;;3.90;99.90;;;;;;6942382;28;20453;-75
2020/12/12 11:10:41;;;;;;;43.73;24.43;;;3.90;99.90;;;;;;6950399;28;20418;-76
2020/12/12 11:14:09;;;;;;;45.40;23.50;;;3.90;99.90;;;;;;6942155;28;20434;-75
2020/12/12 11:17:30;;;;;;;41.47;23.63;;;3.80;99.90;;;;;;6942748;28;20893;-75
2020/12/12 11:20:51;;;;;;;46.73;24.50;;;3.90;99.90;;;;;;6938938;28;20428;-73
2020/12/12 11:24:12;;;;;;;46.25;24.63;;;3.80;99.90;;;;;;6947647;28;20409;-73
2020/12/12 11:27:33;;;;;;;45.80;23.57;;;3.80;99.90;;;;;;6943171;28;20467;-74
2020/12/12 11:30:54;;;;;;;45.22;24.00;;;3.70;99.90;;;;;;6952441;28;20401;-75
2020/12/12 11:34:24;;;;;;;50.42;24.15;;;3.70;99.90;;;;;;6947423;28;20410;-75
2020/12/12 11:45:02;;;;;;;50.95;24.50;;;3.60;99.90;;;;;;6940469;28;20407;-75
2020/12/12 11:48:23;;;;;;;47.75;24.77;;;3.60;99.90;;;;;;6944412;28;20470;-75
2020/12/12 11:51:44;;;;;;;48.43;24.67;;;3.60;99.90;;;;;;6942191;28;20393;-72
2020/12/12 11:55:05;;;;;;;48.20;25.43;;;3.60;99.90;;;;;;6941488;28;20919;-73
2020/12/12 11:58:26;;;;;;;46.13;24.77;;;3.70;99.90;;;;;;6947474;28;20418;-74
2020/12/12 12:01:47;;;;;;;51.20;25.63;;;3.80;99.90;;;;;;6944573;28;20435;-72
2020/12/12 12:05:08;;;;;;;45.00;24.53;;;3.70;99.90;;;;;;6944986;28;20924;-73
2020/12/12 12:08:38;;;;;;;48.63;25.07;;;3.60;99.90;;;;;;6941377;28;20452;-71
2020/12/12 12:11:59;;;;;;;49.28;24.50;;;3.80;99.90;;;;;;6936360;28;20772;-72
2020/12/12 12:15:19;;;;;;;46.63;24.50;;;3.80;99.90;;;;;;6954688;28;20407;-73
2020/12/12 12:18:40;;;;;;;47.67;23.65;;;3.80;99.90;;;;;;6942126;28;20482;-72
2020/12/12 12:22:01;;;;;;;43.70;23.50;;;3.80;99.90;;;;;;6940399;28;20425;-72
2020/12/12 12:25:22;;;;;;;44.90;24.13;;;3.80;99.90;;;;;;6946375;28;20773;-72
2020/12/12 12:28:42;;;;;;;48.92;24.38;;;3.80;99.90;;;;;;6944363;28;20405;-73
2020/12/12 12:32:03;;;;;;;44.53;23.90;;;3.90;99.90;;;;;;6954836;28;20852;-71
2020/12/12 12:35:24;;;;;;;46.92;24.45;;;3.90;99.90;;;;;;6942659;28;20465;-73
2020/12/12 12:38:45;;;;;;;47.40;24.25;;;3.90;99.90;;;;;;6946404;28;20841;-72
2020/12/12 12:42:05;;;;;;;46.57;24.80;;;3.90;99.90;;;;;;6940428;28;20482;-73
2020/12/12 12:45:26;;;;;;;47.55;24.65;;;4.00;99.90;;;;;;6948588;28;20537;-73
2020/12/12 12:48:47;;;;;;;47.63;24.40;;;4.00;99.90;;;;;;6941074;28;20399;-73
2020/12/12 12:52:08;;;;;;;47.13;24.50;;;4.10;99.90;;;;;;6943101;28;20897;-73
2020/12/12 12:55:29;;;;;;;43.63;23.85;;;4.10;99.90;;;;;;6945812;28;20422;-72
2020/12/12 12:58:51;;;;;;;49.57;24.63;;;4.10;99.90;;;;;;6960169;28;20438;-73
2020/12/12 13:02:12;;;;;;;43.97;23.38;;;4.10;99.90;;;;;;6953157;28;20430;-72
2020/12/12 13:05:33;;;;;;;41.38;23.30;;;4.10;99.90;;;;;;6953566;28;20399;-73
2020/12/12 13:08:57;;;;;;;39.97;22.80;;;4.10;99.90;;;;;;6950192;28;20779;-73
2020/12/12 13:12:18;;;;;;;41.22;23.40;;;4.20;99.90;;;;;;6943796;28;20391;-71
2020/12/12 13:15:39;;;;;;;41.90;23.52;;;4.20;99.90;;;;;;6951574;28;20452;-72
2020/12/12 13:19:05;;;;;;;39.80;22.53;;;4.30;99.90;;;;;;6951757;28;20841;-73
2020/12/12 13:22:26;;;;;;;43.40;23.55;;;4.10;99.90;;;;;;6947116;28;20747;-73
2020/12/12 13:25:47;;;;;;;40.93;22.53;;;4.20;99.90;;;;;;6941396;28;20927;-73
2020/12/12 13:32:47;;;;;;;40.30;22.80;;;4.20;99.90;;;;;;6933865;28;20779;-73
2020/12/12 13:36:09;;;;;;;40.38;23.27;;;4.30;99.90;;;;;;6933697;28;20440;-73
2020/12/12 13:39:31;;;;;;;40.17;22.85;;;4.30;99.90;;;;;;6948228;28;20429;-72
2020/12/12 13:42:52;;;;;;;38.87;23.13;;;4.20;99.90;;;;;;6946240;28;20404;-73
2020/12/12 13:46:13;;;;;;;42.27;23.27;;;4.30;99.90;;;;;;6943240;28;20441;-73
2020/12/12 13:49:34;;;;;;;40.38;22.15;;;4.30;99.90;;;;;;6951010;28;20498;-73
2020/12/12 13:52:55;;;;;;;42.83;23.20;;;4.30;99.90;;;;;;6947540;28;20402;-72
2020/12/12 13:56:16;;;;;;;41.90;23.90;;;4.20;99.90;;;;;;6953245;28;20459;-73
2020/12/12 13:59:37;;;;;;;38.70;22.98;;;4.30;99.90;;;;;;6954071;28;20385;-73
2020/12/12 14:02:58;;;;;;;42.40;24.10;;;4.20;99.90;;;;;;6953361;28;20389;-73
2020/12/12 14:06:20;;;;;;;41.20;23.13;;;4.30;99.90;;;;;;6957420;28;20397;-73
2020/12/12 14:10:02;;;;;;;38.67;22.15;;;4.40;99.90;;;;;;6958139;28;20492;-73
2020/12/12 14:24:00;;;;;;;38.58;22.65;;;4.10;99.90;;;;;;6922294;28;20478;-73
2020/12/12 14:31:00;;;;;;;38.13;22.13;;;4.10;99.90;;;;;;6954446;28;20764;-73
2020/12/12 14:34:21;;;;;;;36.90;22.00;;;4.10;99.90;;;;;;6946240;28;20410;-71
2020/12/12 14:37:42;;;;;;;37.10;22.50;;;3.90;99.90;;;;;;6945911;28;20406;-72
2020/12/12 14:41:03;;;;;;;38.28;22.40;;;3.90;99.90;;;;;;6937717;28;21174;-73
2020/12/12 14:44:24;;;;;;;39.17;22.07;;;4.00;99.90;;;;;;6947608;28;20401;-71
2020/12/12 14:47:44;;;;;;;37.85;22.95;;;3.90;99.90;;;;;;6948685;28;20420;-73
2020/12/12 14:51:06;;;;;;;39.75;23.00;;;3.90;99.90;;;;;;6949506;28;20441;-73
2020/12/12 14:54:32;;;;;;;40.00;22.58;;;4.00;99.90;;;;;;6947162;28;20409;-73
2020/12/12 14:57:54;;;;;;;41.70;23.83;;;4.00;99.90;;;;;;6943646;28;20402;-72
2020/12/12 15:01:16;;;;;;;35.85;22.38;;;3.90;99.90;;;;;;6946270;28;20754;-74
2020/12/12 15:04:37;;;;;;;38.17;22.17;;;4.00;99.90;;;;;;6947037;28;20411;-74
2020/12/12 15:07:57;;;;;;;39.67;23.03;;;4.00;99.90;;;;;;6943470;28;20418;-74
2020/12/12 15:11:19;;;;;;;39.50;22.98;;;3.90;99.90;;;;;;6953057;28;20401;-74
2020/12/12 15:14:39;;;;;;;39.28;22.98;;;3.90;99.90;;;;;;6950215;28;20415;-75
2020/12/12 15:18:00;;;;;;;37.58;23.02;;;3.80;99.90;;;;;;6948861;28;20457;-74
2020/12/12 15:21:21;;;;;;;40.83;23.60;;;3.90;99.90;;;;;;6942936;28;20575;-74
2020/12/12 15:24:43;;;;;;;41.60;24.17;;;3.90;99.90;;;;;;6938633;28;20393;-74
2020/12/12 15:28:04;;;;;;;39.65;23.15;;;3.80;99.90;;;;;;6942506;28;20399;-74
2020/12/12 15:31:25;;;;;;;38.35;23.33;;;3.90;99.90;;;;;;6946012;28;20395;-74
2020/12/12 15:34:45;;;;;;;40.60;23.40;;;3.80;99.90;;;;;;6950235;28;20768;-73
2020/12/12 15:38:06;;;;;;;42.40;22.80;;;3.80;99.90;;;;;;6944643;28;20391;-74
2020/12/12 15:41:27;;;;;;;41.72;23.85;;;3.80;99.90;;;;;;6942903;28;20407;-74
2020/12/12 15:44:48;;;;;;;40.63;23.17;;;3.90;99.90;;;;;;6943710;28;20399;-73
2020/12/12 15:48:09;;;;;;;43.07;25.00;;;4.00;99.90;;;;;;6949349;28;20403;-74
2020/12/12 15:51:35;;;;;;;39.77;24.37;;;3.90;99.90;;;;;;6952393;28;20416;-73
2020/12/12 15:54:56;;;;;;;41.85;24.25;;;3.90;99.90;;;;;;6947530;28;20494;-74
2020/12/12 15:58:16;;;;;;;45.55;25.27;;;3.90;99.90;;;;;;6952931;28;20394;-74
2020/12/12 16:01:38;;;;;;;43.70;26.20;;;3.90;99.90;;;;;;6951074;28;20535;-74
2020/12/12 16:04:59;;;;;;;43.30;24.83;;;3.80;99.90;;;;;;6943810;28;20930;-74
2020/12/12 16:08:20;;;;;;;45.85;26.38;;;3.90;99.90;;;;;;6951957;28;20401;-74
2020/12/12 16:11:40;;;;;;;45.40;26.83;;;4.00;99.90;;;;;;6953733;28;20490;-73
2020/12/12 16:15:01;;;;;;;43.73;25.57;;;3.90;99.90;;;;;;6952273;28;20480;-72
2020/12/12 16:18:23;;;;;;;45.70;27.90;;;3.90;99.90;;;;;;6943657;28;20398;-72
2020/12/12 16:21:44;;;;;;;46.67;27.35;;;3.90;99.90;;;;;;6950263;28;20958;-72
2020/12/12 16:25:04;;;;;;;46.63;26.60;;;3.80;99.90;;;;;;6942576;28;20585;-73
2020/12/12 16:28:25;;;;;;;47.90;27.40;;;3.80;99.90;;;;;;6953687;28;20395;-72
2020/12/12 16:31:46;;;;;;;50.13;28.42;;;3.80;99.90;;;;;;6950542;28;20752;-73
2020/12/12 16:35:07;;;;;;;51.70;28.57;;;3.80;99.90;;;;;;6953232;28;20534;-73
2020/12/12 16:38:28;;;;;;;51.95;29.70;;;3.60;99.90;;;;;;6947260;28;20403;-72
2020/12/12 16:41:54;;;;;;;55.93;29.60;;;3.70;99.90;;;;;;6944063;28;20786;-71
2020/12/12 16:45:15;;;;;;;52.33;28.98;;;3.70;99.90;;;;;;6956089;28;20411;-73
2020/12/12 16:48:36;;;;;;;53.63;29.77;;;3.60;99.90;;;;;;6957931;28;20757;-72
2020/12/12 16:51:57;;;;;;;52.23;28.73;;;3.60;99.90;;;;;;6945907;28;21027;-72
2020/12/12 16:55:20;;;;;;;57.13;30.73;;;3.50;99.90;;;;;;6942990;28;20414;-70
2020/12/12 16:58:41;;;;;;;52.20;29.35;;;3.60;99.90;;;;;;6937691;28;20393;-72
2020/12/12 17:02:01;;;;;;;55.85;30.73;;;3.60;99.90;;;;;;6929413;28;20896;-71
2020/12/12 17:05:22;;;;;;;54.53;29.57;;;3.70;99.90;;;;;;6922386;28;20405;-70
2020/12/12 17:08:44;;;;;;;54.45;29.02;;;3.70;99.90;;;;;;6950872;28;20745;-71
2020/12/12 17:12:06;;;;;;;54.53;28.48;;;3.80;99.90;;;;;;6947124;28;20904;-70
2020/12/12 17:15:28;;;;;;;58.97;29.83;;;3.80;99.90;;;;;;6958059;28;20410;-73
2020/12/12 17:18:49;;;;;;;50.78;28.48;;;3.70;99.90;;;;;;6949747;28;20406;-73
2020/12/12 17:22:10;;;;;;;52.50;30.10;;;3.80;99.90;;;;;;6949368;28;20403;-73
2020/12/12 17:25:31;;;;;;;56.47;30.00;;;3.60;99.90;;;;;;6941175;28;21051;-73
2020/12/12 17:28:52;;;;;;;54.15;29.25;;;3.50;99.90;;;;;;6947588;28;20407;-74
2020/12/12 17:32:12;;;;;;;54.42;29.92;;;3.60;99.90;;;;;;6951155;28;20401;-74
2020/12/12 17:35:33;;;;;;;54.10;28.93;;;3.50;99.90;;;;;;6951336;28;20910;-74
2020/12/12 17:38:54;;;;;;;54.70;28.67;;;3.50;99.90;;;;;;6940028;28;20403;-73
2020/12/12 17:42:14;;;;;;;56.20;29.83;;;3.40;99.90;;;;;;6941344;28;20429;-73
2020/12/12 17:45:35;;;;;;;57.67;29.70;;;3.40;99.90;;;;;;6958520;28;20419;-75